Time;durP1;ratioP1;P1;durP2;ratioP2;P2;SDS_P1;SDS_P2;PMS_P1;PMS_P2;Temp;Humidity;BMP_temperature;BMP_pressure;BME280_temperature;BME280_humidity;BME280_pressure;Samples;Min_cycle;Max_cycle;Signal;HPM_P1;HPM_P2
2023/05/16 04:03:12;;;;;;;0.70;0.57;;;14.10;99.90;;;;;;4957245;28;20533;-73
2023/05/16 04:05:40;;;;;;;2.03;1.93;;;14.00;99.90;;;;;;4965736;28;20432;-71
2023/05/16 04:08:08;;;;;;;1.70;1.17;;;13.90;99.90;;;;;;4963433;28;20835;-72
2023/05/16 04:10:36;;;;;;;0.80;0.67;;;13.80;99.90;;;;;;4954936;29;20972;-72
2023/05/16 04:13:04;;;;;;;0.60;0.10;;;13.80;99.90;;;;;;4954045;28;20448;-73
2023/05/16 04:15:32;;;;;;;3.27;1.60;;;;;;;;;;4992468;23;20492;-69
2023/05/16 04:18:00;;;;;;;0.60;0.10;;;13.90;99.90;;;;;;4992100;28;20451;-69
2023/05/16 04:20:29;;;;;;;0.60;0.10;;;13.80;99.90;;;;;;4987681;28;20876;-70
2023/05/16 04:22:59;;;;;;;0.60;0.20;;;13.80;99.90;;;;;;4983381;28;20447;-70
2023/05/16 04:25:27;;;;;;;0.80;0.20;;;13.80;99.90;;;;;;4992118;28;20444;-70
2023/05/16 04:27:56;;;;;;;0.60;0.10;;;13.80;99.90;;;;;;4992318;28;20465;-70
2023/05/16 04:30:24;;;;;;;0.60;0.10;;;13.80;99.90;;;;;;4989011;28;20483;-70
2023/05/16 04:32:51;;;;;;;0.60;0.10;;;13.90;99.90;;;;;;4972528;28;20445;-70
2023/05/16 04:35:20;;;;;;;0.80;0.20;;;13.90;99.90;;;;;;4972912;28;20480;-70
2023/05/16 04:37:50;;;;;;;0.60;0.20;;;13.90;99.90;;;;;;4969959;28;20487;-69
2023/05/16 04:40:17;;;;;;;0.60;0.20;;;14.00;99.90;;;;;;4972316;28;20926;-70
2023/05/16 04:42:46;;;;;;;0.60;0.10;;;14.00;99.90;;;;;;4972355;28;21163;-69
2023/05/16 04:45:14;;;;;;;3.37;1.13;;;14.10;99.90;;;;;;4992202;28;20440;-70
2023/05/16 04:47:42;;;;;;;1.83;1.43;;;14.10;99.90;;;;;;4974376;28;20469;-70
2023/05/16 04:50:10;;;;;;;0.60;0.10;;;14.10;99.90;;;;;;4972460;28;20458;-71
2023/05/16 04:52:38;;;;;;;1.17;0.70;;;14.20;99.90;;;;;;4972481;28;20507;-71
2023/05/16 04:55:08;;;;;;;10.80;2.73;;;14.20;99.90;;;;;;4972727;28;20922;-70
2023/05/16 04:57:36;;;;;;;0.60;0.30;;;14.30;99.90;;;;;;4972823;28;20505;-71
2023/05/16 05:00:07;;;;;;;2.33;2.13;;;14.30;99.90;;;;;;4972734;28;20453;-70
2023/05/16 05:02:35;;;;;;;0.60;0.10;;;14.30;99.90;;;;;;4972203;28;20459;-71
2023/05/16 05:05:04;;;;;;;0.60;0.10;;;14.40;99.90;;;;;;4970290;28;20471;-71
2023/05/16 05:07:32;;;;;;;0.60;0.10;;;14.40;99.90;;;;;;4972527;28;20523;-70
2023/05/16 05:10:00;;;;;;;0.60;0.10;;;14.30;99.90;;;;;;4965989;28;21204;-69
2023/05/16 05:12:29;;;;;;;0.60;0.10;;;14.30;99.90;;;;;;4971924;28;20450;-69
2023/05/16 05:14:57;;;;;;;0.60;0.10;;;14.30;99.90;;;;;;4972520;28;20462;-71
2023/05/16 05:17:25;;;;;;;0.60;0.20;;;14.30;99.90;;;;;;4972377;28;20500;-68
2023/05/16 05:19:53;;;;;;;0.60;0.10;;;14.30;99.90;;;;;;4980908;28;20451;-71
2023/05/16 05:22:21;;;;;;;1.10;0.70;;;14.20;99.90;;;;;;4991608;28;20446;-69
2023/05/16 05:24:49;;;;;;;0.60;0.20;;;14.20;99.90;;;;;;4986685;28;20456;-70
2023/05/16 05:27:17;;;;;;;0.60;0.10;;;14.20;99.90;;;;;;4972349;28;20473;-70
2023/05/16 05:29:46;;;;;;;0.60;0.10;;;14.20;99.90;;;;;;4972597;28;20980;-70
2023/05/16 05:32:13;;;;;;;1.53;1.07;;;14.20;99.90;;;;;;4982874;28;20507;-70
2023/05/16 05:34:41;;;;;;;0.60;0.10;;;14.20;99.90;;;;;;4970882;28;20455;-69
2023/05/16 05:37:09;;;;;;;0.60;0.10;;;14.20;99.90;;;;;;4952865;28;21237;-72
2023/05/16 05:39:37;;;;;;;0.60;0.40;;;14.20;99.90;;;;;;4953135;28;20509;-69
2023/05/16 05:42:05;;;;;;;0.80;0.37;;;;;;;;;;4953645;28;20582;-70
2023/05/16 05:44:33;;;;;;;0.60;0.10;;;16.50;99.90;;;;;;4956093;28;20450;-71
2023/05/16 05:47:03;;;;;;;0.60;0.10;;;14.10;99.90;;;;;;4963673;28;21075;-70
2023/05/16 05:49:31;;;;;;;0.60;0.20;;;14.10;99.90;;;;;;4975536;28;20503;-70
2023/05/16 05:51:59;;;;;;;0.60;0.30;;;14.10;99.90;;;;;;4975794;28;20444;-69
2023/05/16 05:54:27;;;;;;;0.70;0.40;;;14.00;99.90;;;;;;4974993;28;20487;-70
2023/05/16 05:56:55;;;;;;;1.07;0.57;;;14.00;99.90;;;;;;4975156;28;20590;-70
2023/05/16 05:59:23;;;;;;;0.60;0.10;;;13.90;99.90;;;;;;4975786;28;20453;-70
2023/05/16 06:01:51;;;;;;;0.70;0.20;;;13.80;99.90;;;;;;4972569;28;20458;-71
2023/05/16 06:04:22;;;;;;;0.60;0.10;;;13.70;97.10;;;;;;4975644;28;20452;-71
2023/05/16 06:06:50;;;;;;;1.13;0.90;;;13.70;96.00;;;;;;4976200;28;20462;-71
2023/05/16 06:09:18;;;;;;;0.60;0.10;;;13.70;99.00;;;;;;4975639;28;20459;-73
2023/05/16 06:11:46;;;;;;;0.60;0.13;;;13.70;99.90;;;;;;4975388;28;20448;-71
2023/05/16 06:14:14;;;;;;;0.60;0.20;;;13.70;94.20;;;;;;4975299;28;20452;-68
2023/05/16 06:16:42;;;;;;;0.60;0.10;;;13.70;96.60;;;;;;4975188;28;20570;-70
2023/05/16 06:19:11;;;;;;;0.60;0.10;;;13.70;94.90;;;;;;4980338;28;20472;-71
2023/05/16 06:21:40;;;;;;;0.60;0.10;;;13.60;96.30;;;;;;4984309;28;20918;-72
2023/05/16 06:24:08;;;;;;;0.80;0.40;;;13.60;99.20;;;;;;4986626;28;20455;-70
2023/05/16 06:26:36;;;;;;;0.80;0.40;;;13.60;99.90;;;;;;4976221;28;20479;-70
2023/05/16 06:29:04;;;;;;;0.93;0.80;;;13.50;99.90;;;;;;4996011;28;20455;-71
2023/05/16 06:31:32;;;;;;;0.60;0.10;;;13.40;99.90;;;;;;4989045;28;20954;-70
2023/05/16 06:34:00;;;;;;;0.60;0.10;;;13.40;99.90;;;;;;4963973;28;20951;-74
2023/05/16 06:36:28;;;;;;;0.80;0.30;;;13.30;99.90;;;;;;4975492;28;20477;-71
2023/05/16 06:38:57;;;;;;;0.60;0.20;;;13.20;99.90;;;;;;4975468;28;20798;-72
2023/05/16 06:41:25;;;;;;;5.13;1.43;;;13.20;99.90;;;;;;4975244;28;20450;-72
2023/05/16 06:43:53;;;;;;;0.60;0.10;;;13.20;99.90;;;;;;4974631;28;20456;-70
2023/05/16 06:46:20;;;;;;;0.60;0.20;;;13.20;99.90;;;;;;4961402;28;20556;-71
2023/05/16 06:48:48;;;;;;;2.00;0.30;;;13.20;99.90;;;;;;4955755;28;20544;-71
2023/05/16 06:51:17;;;;;;;0.60;0.23;;;13.10;99.90;;;;;;4956513;28;20459;-71
2023/05/16 06:53:45;;;;;;;1.10;0.47;;;13.10;99.90;;;;;;4955727;28;20449;-71
2023/05/16 06:56:14;;;;;;;0.60;0.10;;;13.10;99.90;;;;;;4955674;28;20557;-71
2023/05/16 06:58:42;;;;;;;0.60;0.20;;;13.10;99.90;;;;;;4955350;28;20486;-71
2023/05/16 07:01:10;;;;;;;0.60;0.10;;;13.00;99.90;;;;;;4956144;28;20548;-71
2023/05/16 07:03:38;;;;;;;0.60;0.20;;;13.00;99.90;;;;;;4966339;28;20460;-73
2023/05/16 07:06:07;;;;;;;0.60;0.20;;;;;;;;;;4954896;28;20531;-71
2023/05/16 07:08:35;;;;;;;1.20;1.10;;;13.00;99.90;;;;;;4955597;28;20490;-71
2023/05/16 07:11:04;;;;;;;0.70;0.20;;;;;;;;;;4964096;28;20861;-71
2023/05/16 07:13:33;;;;;;;1.03;0.83;;;13.20;99.90;;;;;;4975729;28;20303;-71
2023/05/16 07:16:03;;;;;;;0.60;0.10;;;;;;;;;;4974916;28;20503;-71
2023/05/16 07:18:31;;;;;;;0.60;0.10;;;;;;;;;;4971671;28;20468;-71
2023/05/16 07:21:00;;;;;;;0.60;0.20;;;13.30;99.90;;;;;;4960573;28;20475;-71
2023/05/16 07:23:27;;;;;;;0.60;0.10;;;13.30;99.90;;;;;;4956020;28;20478;-70
2023/05/16 07:25:55;;;;;;;0.60;0.10;;;13.30;99.90;;;;;;4956510;28;20470;-72
2023/05/16 07:28:23;;;;;;;0.60;0.13;;;13.30;99.90;;;;;;4955754;28;20468;-70
2023/05/16 07:30:53;;;;;;;0.60;0.10;;;13.30;99.90;;;;;;4954988;28;20529;-71
2023/05/16 07:33:21;;;;;;;0.60;0.10;;;13.30;99.90;;;;;;4957712;28;20462;-71
2023/05/16 07:35:49;;;;;;;0.60;0.10;;;13.40;99.90;;;;;;4974941;28;20551;-72
2023/05/16 07:38:18;;;;;;;0.60;0.10;;;13.40;99.90;;;;;;4956143;28;20480;-71
2023/05/16 07:40:46;;;;;;;0.60;0.10;;;13.30;99.90;;;;;;4955101;28;20474;-70
2023/05/16 07:43:14;;;;;;;0.60;0.20;;;13.40;99.90;;;;;;4954840;28;20450;-71
2023/05/16 07:45:41;;;;;;;0.60;0.10;;;13.40;99.90;;;;;;4955686;28;20564;-70
2023/05/16 07:48:11;;;;;;;0.60;0.10;;;13.30;99.90;;;;;;4954385;28;20970;-72
2023/05/16 07:50:39;;;;;;;0.60;0.10;;;13.20;99.90;;;;;;4968406;28;20460;-71
2023/05/16 07:53:06;;;;;;;0.60;0.10;;;13.20;99.90;;;;;;4974022;28;20462;-71
2023/05/16 07:55:34;;;;;;;0.60;0.10;;;13.10;99.90;;;;;;4974207;28;20471;-72
2023/05/16 07:58:03;;;;;;;0.60;0.10;;;13.00;99.90;;;;;;4973642;28;20999;-69
2023/05/16 08:00:31;;;;;;;0.60;0.17;;;12.90;99.90;;;;;;4973335;28;21152;-72
2023/05/16 08:02:59;;;;;;;0.60;0.10;;;12.60;99.90;;;;;;4972815;28;20479;-71
2023/05/16 08:05:29;;;;;;;0.80;0.20;;;12.50;99.90;;;;;;4973452;28;20836;-70
2023/05/16 08:07:58;;;;;;;0.60;0.10;;;12.50;99.90;;;;;;4974438;28;20455;-71
2023/05/16 08:10:25;;;;;;;0.80;0.63;;;12.50;99.90;;;;;;4973805;28;20541;-70
2023/05/16 08:12:53;;;;;;;0.60;0.10;;;12.50;99.90;;;;;;4969680;28;20457;-72
2023/05/16 08:15:21;;;;;;;1.13;0.87;;;12.50;99.90;;;;;;4971759;28;20483;-71
2023/05/16 08:17:50;;;;;;;0.60;0.10;;;12.50;99.90;;;;;;4974005;28;20479;-70
2023/05/16 08:20:18;;;;;;;0.60;0.20;;;;;;;;;;4968656;28;20810;-71
2023/05/16 08:22:47;;;;;;;0.60;0.10;;;12.30;99.90;;;;;;4973883;28;20478;-70
2023/05/16 08:25:15;;;;;;;0.60;0.10;;;12.30;99.90;;;;;;4966215;28;20932;-70
2023/05/16 08:27:44;;;;;;;0.60;0.10;;;12.30;99.90;;;;;;4973683;28;20561;-71
2023/05/16 08:30:13;;;;;;;0.60;0.10;;;12.20;99.90;;;;;;4972356;28;20519;-70
2023/05/16 08:32:41;;;;;;;0.60;0.20;;;12.20;99.90;;;;;;4973760;28;20452;-70
2023/05/16 08:35:09;;;;;;;0.80;0.30;;;12.20;99.90;;;;;;4965785;28;20459;-70
2023/05/16 08:37:37;;;;;;;0.60;0.20;;;12.10;99.90;;;;;;4974335;28;20483;-70
2023/05/16 08:40:10;;;;;;;0.60;0.10;;;12.00;99.90;;;;;;4974482;28;20448;-71
2023/05/16 08:42:39;;;;;;;0.60;0.10;;;11.90;99.90;;;;;;4966344;28;20483;-70
2023/05/16 08:45:08;;;;;;;0.60;0.10;;;12.00;99.70;;;;;;4974492;28;20495;-70
2023/05/16 08:47:41;;;;;;;1.10;0.97;;;11.90;99.00;;;;;;4972100;28;20451;-70
2023/05/16 08:50:10;;;;;;;0.60;0.10;;;12.00;99.90;;;;;;4974148;28;20480;-70
2023/05/16 08:52:41;;;;;;;0.60;0.10;;;12.10;99.90;;;;;;4973535;28;20444;-71
2023/05/16 08:55:11;;;;;;;0.60;0.30;;;12.20;99.90;;;;;;4973416;28;20538;-71
2023/05/16 08:57:40;;;;;;;0.60;0.10;;;12.10;97.90;;;;;;4973652;28;20476;-70
2023/05/16 09:00:11;;;;;;;0.60;0.10;;;12.10;99.60;;;;;;4972905;28;20533;-70
2023/05/16 09:02:40;;;;;;;0.60;0.17;;;12.20;99.40;;;;;;4969603;28;20504;-71
2023/05/16 09:05:11;;;;;;;0.60;0.10;;;12.20;99.10;;;;;;4972907;28;21034;-71
2023/05/16 09:07:39;;;;;;;0.60;0.33;;;12.20;99.90;;;;;;4972393;28;20442;-71
2023/05/16 09:10:08;;;;;;;0.60;0.10;;;12.30;99.90;;;;;;4973203;28;20567;-70
2023/05/16 09:12:39;;;;;;;0.60;0.10;;;12.30;99.90;;;;;;4972635;28;20481;-70
2023/05/16 09:15:08;;;;;;;0.60;0.30;;;12.40;99.90;;;;;;4973222;28;20484;-70
2023/05/16 09:17:38;;;;;;;0.60;0.20;;;12.50;99.90;;;;;;4975013;28;20525;-70
2023/05/16 09:20:13;;;;;;;0.60;0.10;;;12.50;99.90;;;;;;4970153;28;20478;-70
2023/05/16 09:22:51;;;;;;;0.60;0.10;;;12.50;99.90;;;;;;4975529;28;20451;-69
2023/05/16 09:25:19;;;;;;;1.03;0.33;;;12.50;99.70;;;;;;4975343;28;20971;-70
2023/05/16 09:27:59;;;;;;;0.60;0.10;;;12.50;99.90;;;;;;4979954;28;20439;-70
2023/05/16 09:30:30;;;;;;;0.60;0.10;;;12.50;98.80;;;;;;4975970;28;20501;-70
2023/05/16 09:32:58;;;;;;;0.60;0.10;;;12.40;98.30;;;;;;4976151;28;20530;-71
2023/05/16 09:35:27;;;;;;;0.80;0.20;;;12.50;97.40;;;;;;4980736;28;20458;-70
2023/05/16 09:37:57;;;;;;;0.60;0.20;;;12.50;96.90;;;;;;4982731;28;20534;-70
2023/05/16 09:40:25;;;;;;;0.60;0.20;;;12.60;96.30;;;;;;4975907;28;20825;-72
2023/05/16 09:43:04;;;;;;;0.60;0.10;;;12.60;95.60;;;;;;4973503;28;20537;-70
2023/05/16 09:45:33;;;;;;;0.60;0.10;;;12.60;94.90;;;;;;4975577;28;20465;-69
2023/05/16 09:48:03;;;;;;;0.60;0.20;;;12.70;93.20;;;;;;4975607;28;21252;-70
2023/05/16 09:50:33;;;;;;;0.60;0.20;;;12.70;88.90;;;;;;4973910;28;20886;-69
2023/05/16 09:53:01;;;;;;;0.60;0.10;;;12.80;87.10;;;;;;4975486;28;20937;-73
2023/05/16 09:55:30;;;;;;;1.00;0.20;;;12.80;81.50;;;;;;4976627;28;20447;-72
2023/05/16 09:57:58;;;;;;;0.60;0.20;;;12.70;78.20;;;;;;4975652;28;20521;-70
2023/05/16 10:00:31;;;;;;;0.60;0.10;;;12.70;74.10;;;;;;4975296;28;20547;-71
2023/05/16 10:03:01;;;;;;;0.60;0.10;;;11.30;70.80;;;;;;4975171;28;20451;-73
2023/05/16 10:05:33;;;;;;;0.60;0.10;;;12.70;70.70;;;;;;4974496;28;20468;-71
2023/05/16 10:08:03;;;;;;;0.60;0.10;;;12.80;72.30;;;;;;4955774;28;20470;-72
2023/05/16 10:10:34;;;;;;;0.60;0.20;;;12.90;67.30;;;;;;4965063;28;20446;-72
2023/05/16 10:13:05;;;;;;;0.60;0.10;;;13.00;65.20;;;;;;4984634;28;20441;-72
2023/05/16 10:18:06;;;;;;;0.60;0.10;;;13.00;54.70;;;;;;4946549;29;20504;-72
2023/05/16 10:20:35;;;;;;;0.60;0.10;;;13.10;79.40;;;;;;4945581;29;20448;-71
2023/05/16 10:23:05;;;;;;;0.60;0.10;;;13.20;65.30;;;;;;4936963;29;20482;-68
2023/05/16 10:25:36;;;;;;;0.60;0.10;;;13.30;46.20;;;;;;4938760;29;20449;-71
2023/05/16 10:28:05;;;;;;;0.60;0.30;;;13.30;43.10;;;;;;4937796;29;20451;-70
2023/05/16 10:30:33;;;;;;;0.70;0.40;;;13.30;42.50;;;;;;4939244;29;20517;-71
2023/05/16 10:33:04;;;;;;;0.60;0.20;;;13.40;53.10;;;;;;4938402;29;20512;-69
2023/05/16 10:35:34;;;;;;;0.60;0.20;;;13.50;45.40;;;;;;4938657;29;20457;-69
2023/05/16 10:38:02;;;;;;;0.60;0.20;;;13.50;43.40;;;;;;4937893;29;20955;-70
2023/05/16 10:40:35;;;;;;;0.60;0.10;;;13.50;37.10;;;;;;4938331;29;20438;-70
2023/05/16 10:43:05;;;;;;;0.60;0.10;;;13.30;36.30;;;;;;4937983;29;20527;-70
2023/05/16 10:45:33;;;;;;;0.60;0.10;;;13.40;36.80;;;;;;4938265;29;20537;-72
2023/05/16 10:48:03;;;;;;;0.60;0.20;;;13.40;37.00;;;;;;4938370;29;20450;-72
2023/05/16 10:50:35;;;;;;;0.60;0.10;;;13.40;46.10;;;;;;4939362;29;20782;-71
2023/05/16 10:53:18;;;;;;;0.60;0.10;;;13.60;37.10;;;;;;4938433;29;20463;-69
2023/05/16 10:56:08;;;;;;;0.60;0.10;;;13.70;32.80;;;;;;4938808;29;20526;-71
2023/05/16 10:58:44;;;;;;;0.60;0.10;;;13.70;44.30;;;;;;4937694;29;20481;-70
2023/05/16 11:01:20;;;;;;;0.60;0.10;;;13.80;41.00;;;;;;4937980;29;20465;-69
2023/05/16 11:04:06;;;;;;;0.60;0.20;;;13.80;29.60;;;;;;4938200;29;20464;-71
2023/05/16 11:06:43;;;;;;;0.80;0.40;;;13.80;27.50;;;;;;4936860;29;20837;-72
2023/05/16 11:09:23;;;;;;;0.60;0.10;;;13.80;36.20;;;;;;4936657;29;20807;-69
2023/05/16 11:12:01;;;;;;;0.60;0.10;;;13.80;35.20;;;;;;4943123;29;20482;-70
2023/05/16 11:14:36;;;;;;;0.60;0.10;;;13.80;36.70;;;;;;4942965;29;20484;-70
2023/05/16 11:17:08;;;;;;;0.60;0.30;;;13.90;22.10;;;;;;4940959;29;20484;-71
2023/05/16 11:19:41;;;;;;;0.60;0.10;;;13.90;23.50;;;;;;4939412;29;20481;-70
2023/05/16 11:22:25;;;;;;;1.00;0.90;;;13.90;6.70;;;;;;4939970;29;20895;-71
2023/05/16 11:25:00;;;;;;;3.03;1.37;;;13.90;14.30;;;;;;4938320;29;20457;-69
2023/05/16 11:27:29;;;;;;;0.60;0.10;;;13.80;1.00;;;;;;4937151;29;20482;-69
2023/05/16 11:30:02;;;;;;;3.17;2.97;;;13.80;9.50;;;;;;4938398;29;20859;-70
2023/05/16 11:32:33;;;;;;;0.60;0.10;;;13.80;1.70;;;;;;4938133;29;20447;-71
2023/05/16 11:35:02;;;;;;;0.60;0.20;;;13.80;9.90;;;;;;4937718;29;20512;-70
2023/05/16 11:37:32;;;;;;;0.60;0.10;;;13.90;1.00;;;;;;4938608;29;20522;-70
2023/05/16 11:40:01;;;;;;;0.60;0.10;;;13.90;4.50;;;;;;4938905;29;20481;-70
2023/05/16 11:42:32;;;;;;;0.60;0.10;;;13.90;1.00;;;;;;4950770;29;20525;-72
2023/05/16 11:45:05;;;;;;;0.60;0.20;;;13.90;1.00;;;;;;4956317;28;21123;-70
2023/05/16 11:47:33;;;;;;;0.60;0.10;;;14.00;1.00;;;;;;4950937;28;21016;-69
2023/05/16 11:50:03;;;;;;;0.60;0.10;;;14.10;1.00;;;;;;4937510;29;20836;-72
2023/05/16 11:52:32;;;;;;;0.60;0.20;;;14.20;1.00;;;;;;4939625;29;20552;-73
2023/05/16 11:55:01;;;;;;;0.60;0.10;;;14.20;6.40;;;;;;4939248;29;20519;-69
2023/05/16 11:57:29;;;;;;;0.60;0.10;;;14.30;1.00;;;;;;4941310;29;20470;-70
2023/05/16 12:00:03;;;;;;;0.60;0.13;;;14.30;4.80;;;;;;4940743;29;20524;-69
2023/05/16 12:02:33;;;;;;;1.13;0.30;;;14.30;6.70;;;;;;4936673;29;20461;-70
2023/05/16 12:05:09;;;;;;;0.60;0.10;;;14.50;1.00;;;;;;4938663;29;20456;-69
2023/05/16 12:07:39;;;;;;;0.60;0.10;;;14.50;1.00;;;;;;4939653;29;20514;-70
2023/05/16 12:10:08;;;;;;;0.60;0.23;;;14.60;6.30;;;;;;4939047;29;21011;-69
2023/05/16 12:12:38;;;;;;;0.60;0.10;;;14.80;7.20;;;;;;4937876;29;20456;-70
2023/05/16 12:15:08;;;;;;;0.60;0.20;;;14.90;7.40;;;;;;4939966;29;20534;-71
2023/05/16 12:17:37;;;;;;;0.60;0.10;;;15.10;1.00;;;;;;4941475;29;20488;-70
2023/05/16 12:20:09;;;;;;;0.60;0.10;;;15.20;1.00;;;;;;4943369;29;20489;-71
2023/05/16 12:22:41;;;;;;;0.60;0.10;;;15.20;4.90;;;;;;4943539;29;20472;-71
2023/05/16 12:25:26;;;;;;;0.60;0.10;;;15.50;1.00;;;;;;4942993;29;20468;-69
2023/05/16 12:27:55;;;;;;;0.60;0.10;;;15.50;1.00;;;;;;4941770;29;20907;-70
2023/05/16 12:30:26;;;;;;;0.60;0.20;;;15.40;1.00;;;;;;4943125;29;21035;-71
2023/05/16 12:32:58;;;;;;;1.67;1.20;;;15.40;1.00;;;;;;4937114;29;20450;-72
2023/05/16 12:35:29;;;;;;;0.60;0.10;;;15.60;1.00;;;;;;4936685;29;20459;-69
2023/05/16 12:37:59;;;;;;;0.60;0.23;;;15.50;1.00;;;;;;4937844;29;20451;-72
2023/05/16 12:40:28;;;;;;;0.60;0.10;;;15.50;1.00;;;;;;4936685;29;20492;-71
2023/05/16 12:42:57;;;;;;;0.70;0.40;;;15.70;1.00;;;;;;4936376;29;20465;-71
2023/05/16 12:45:27;;;;;;;0.60;0.10;;;15.90;1.00;;;;;;4937781;29;20452;-71
2023/05/16 12:47:55;;;;;;;0.60;0.10;;;15.90;1.00;;;;;;4938170;29;20542;-72
2023/05/16 12:50:26;;;;;;;0.60;0.20;;;16.60;1.00;;;;;;4937037;29;21013;-70
2023/05/16 12:52:58;;;;;;;0.60;0.10;;;16.00;1.00;;;;;;4940422;29;20484;-70
2023/05/16 12:55:28;;;;;;;0.60;0.17;;;15.80;1.00;;;;;;4940882;29;20458;-71
2023/05/16 12:57:56;;;;;;;1.47;0.40;;;15.80;1.00;;;;;;4939509;29;20457;-71
2023/05/16 13:00:25;;;;;;;0.60;0.20;;;15.80;1.00;;;;;;4941114;29;20488;-70
2023/05/16 13:02:53;;;;;;;0.60;0.10;;;15.80;1.00;;;;;;4942859;29;20452;-71
2023/05/16 13:05:22;;;;;;;0.70;0.33;;;15.90;1.00;;;;;;4943165;29;20469;-70
2023/05/16 13:07:51;;;;;;;0.60;0.13;;;15.70;1.00;;;;;;4943004;29;20453;-70
2023/05/16 13:10:19;;;;;;;0.60;0.20;;;18.00;1.00;;;;;;4943496;29;20794;-70
2023/05/16 13:12:48;;;;;;;0.60;0.10;;;15.80;1.00;;;;;;4942182;29;20457;-69
2023/05/16 13:15:16;;;;;;;0.60;0.10;;;16.10;1.00;;;;;;4943131;29;20487;-71
2023/05/16 13:17:44;;;;;;;0.60;0.20;;;16.20;1.00;;;;;;4942567;29;20480;-73
2023/05/16 13:20:13;;;;;;;0.60;0.20;;;16.20;1.00;;;;;;4941056;29;20833;-73
2023/05/16 13:22:43;;;;;;;0.90;0.30;;;16.30;1.00;;;;;;4942306;29;20995;-72
2023/05/16 13:25:11;;;;;;;0.60;0.20;;;16.30;1.00;;;;;;4939130;29;20472;-71
2023/05/16 13:27:39;;;;;;;0.60;0.10;;;16.30;1.00;;;;;;4938933;29;20512;-71
2023/05/16 13:30:10;;;;;;;0.60;0.10;;;16.30;1.00;;;;;;4939478;29;20534;-70
2023/05/16 13:32:38;;;;;;;0.60;0.10;;;16.40;1.00;;;;;;4939131;29;20477;-70
2023/05/16 13:35:08;;;;;;;0.60;0.10;;;16.40;1.00;;;;;;4939851;29;20572;-70
2023/05/16 13:37:37;;;;;;;0.60;0.20;;;16.40;1.00;;;;;;4939451;29;20490;-71
2023/05/16 13:40:09;;;;;;;0.60;0.10;;;16.50;1.00;;;;;;4939027;29;20532;-71
2023/05/16 13:42:37;;;;;;;1.00;0.87;;;16.50;1.00;;;;;;4939585;29;20500;-72
2023/05/16 13:45:06;;;;;;;0.60;0.20;;;16.50;1.00;;;;;;4939438;29;20917;-71
2023/05/16 13:47:36;;;;;;;0.60;0.20;;;16.60;1.00;;;;;;4940842;29;20479;-69
2023/05/16 13:50:08;;;;;;;0.60;0.20;;;16.70;1.00;;;;;;4938614;29;20490;-71
2023/05/16 13:52:36;;;;;;;0.60;0.20;;;16.50;1.00;;;;;;4941116;29;20467;-69
2023/05/16 13:55:06;;;;;;;1.00;0.40;;;16.50;1.00;;;;;;4939556;29;20453;-70
2023/05/16 13:57:35;;;;;;;0.60;0.10;;;16.40;1.00;;;;;;4941062;29;20478;-71
2023/05/16 14:00:07;;;;;;;0.60;0.10;;;16.40;1.00;;;;;;4942718;29;20510;-71
2023/05/16 14:02:39;;;;;;;0.60;0.10;;;16.40;1.00;;;;;;4940765;29;20445;-69
2023/05/16 14:05:08;;;;;;;0.70;0.33;;;16.60;1.00;;;;;;4942376;29;20505;-72
2023/05/16 14:07:36;;;;;;;0.60;0.20;;;16.80;1.00;;;;;;4942999;29;20482;-71
2023/05/16 14:10:05;;;;;;;0.60;0.10;;;16.90;1.00;;;;;;4944428;29;20569;-70
2023/05/16 14:12:34;;;;;;;0.60;0.10;;;16.90;1.00;;;;;;4942321;29;20958;-70
2023/05/16 14:15:02;;;;;;;0.60;0.13;;;;;;;;;;4941017;29;20485;-70
2023/05/16 14:17:30;;;;;;;0.60;0.10;;;16.60;1.00;;;;;;4938849;29;21011;-71
2023/05/16 14:20:00;;;;;;;0.60;0.20;;;;;;;;;;4940520;29;20530;-70
2023/05/16 14:22:28;;;;;;;1.43;1.33;;;16.70;1.00;;;;;;4941506;29;20455;-71
2023/05/16 14:24:56;;;;;;;0.60;0.20;;;16.80;1.00;;;;;;4939225;29;20805;-73
2023/05/16 14:27:25;;;;;;;0.60;0.10;;;;;;;;;;4939636;29;20878;-71
2023/05/16 14:29:56;;;;;;;0.60;0.20;;;17.30;1.00;;;;;;4937635;29;20530;-71
2023/05/16 14:32:24;;;;;;;0.60;0.10;;;17.40;1.00;;;;;;4939072;29;20458;-72
2023/05/16 14:34:52;;;;;;;0.60;0.17;;;17.40;1.00;;;;;;4938471;29;20804;-72
2023/05/16 14:37:21;;;;;;;1.33;0.57;;;17.50;1.00;;;;;;4939045;29;21099;-73
2023/05/16 14:39:49;;;;;;;0.60;0.10;;;17.50;1.00;;;;;;4940341;29;20980;-70
2023/05/16 14:42:17;;;;;;;0.70;0.20;;;17.20;1.00;;;;;;4940940;29;20551;-71
2023/05/16 14:44:46;;;;;;;0.60;0.10;;;17.20;1.00;;;;;;4940247;29;20482;-73
2023/05/16 14:47:14;;;;;;;0.60;0.20;;;17.20;1.00;;;;;;4940092;29;20591;-72
2023/05/16 14:49:42;;;;;;;0.60;0.10;;;17.30;1.00;;;;;;4938054;29;20534;-73
2023/05/16 14:52:10;;;;;;;0.60;0.10;;;17.30;1.00;;;;;;4938840;29;20486;-73
2023/05/16 14:54:40;;;;;;;0.60;0.10;;;;;;;;;;4940121;29;20439;-71
2023/05/16 14:57:08;;;;;;;0.60;0.20;;;17.80;1.00;;;;;;4944511;28;20964;-73
2023/05/16 14:59:35;;;;;;;0.80;0.37;;;18.00;1.00;;;;;;4948354;29;20455;-70
2023/05/16 15:02:05;;;;;;;0.60;0.10;;;18.00;1.00;;;;;;4937077;29;20483;-71
2023/05/16 15:04:33;;;;;;;0.60;0.20;;;17.90;1.00;;;;;;4937097;29;20452;-73
2023/05/16 15:07:01;;;;;;;0.60;0.10;;;18.00;1.00;;;;;;4937238;29;20550;-70
2023/05/16 15:09:28;;;;;;;0.90;0.40;;;18.00;1.00;;;;;;4938326;29;20505;-72
2023/05/16 15:11:58;;;;;;;0.60;0.20;;;17.90;1.00;;;;;;4938989;29;20458;-72
2023/05/16 15:14:26;;;;;;;0.60;0.20;;;17.90;1.00;;;;;;4938417;29;20483;-70
2023/05/16 15:16:54;;;;;;;0.60;0.10;;;17.80;1.00;;;;;;4939765;29;20493;-72
2023/05/16 15:19:22;;;;;;;1.20;0.40;;;17.60;1.00;;;;;;4939469;29;20442;-70
2023/05/16 15:21:50;;;;;;;0.60;0.20;;;17.60;1.00;;;;;;4939184;29;20479;-74
2023/05/16 15:24:18;;;;;;;0.60;0.10;;;17.80;1.00;;;;;;4937687;29;20458;-72
2023/05/16 15:26:46;;;;;;;0.60;0.10;;;18.10;1.00;;;;;;4934759;29;20522;-72
2023/05/16 15:29:18;;;;;;;0.60;0.10;;;;;;;;;;4941516;29;20478;-71
2023/05/16 15:31:46;;;;;;;0.60;0.10;;;18.20;1.00;;;;;;4943586;28;20495;-71
2023/05/16 15:34:14;;;;;;;0.60;0.10;;;18.10;1.00;;;;;;4945485;28;20462;-72
2023/05/16 15:36:42;;;;;;;0.60;0.10;;;17.90;1.00;;;;;;4944752;28;21038;-76
2023/05/16 15:39:10;;;;;;;0.60;0.20;;;17.70;1.00;;;;;;4943391;28;20498;-72
2023/05/16 15:41:39;;;;;;;0.60;0.10;;;;;;;;;;4937049;29;20485;-70
2023/05/16 15:44:28;;;;;;;0.60;0.10;;;17.40;1.00;;;;;;4938929;29;20455;-71
2023/05/16 15:46:56;;;;;;;0.60;0.20;;;17.20;1.00;;;;;;4946946;29;20553;-71
2023/05/16 15:49:24;;;;;;;0.60;0.10;;;17.20;1.00;;;;;;4939103;29;20483;-69
2023/05/16 15:51:53;;;;;;;0.60;0.20;;;;;;;;;;4940794;29;20482;-72
2023/05/16 15:54:21;;;;;;;0.60;0.10;;;17.60;1.00;;;;;;4939065;29;21071;-72
2023/05/16 15:56:49;;;;;;;0.60;0.20;;;18.10;1.00;;;;;;4936437;29;20474;-70
2023/05/16 15:59:17;;;;;;;2.77;1.80;;;18.20;1.00;;;;;;4937136;29;20446;-70
2023/05/16 16:01:46;;;;;;;0.60;0.20;;;18.50;1.00;;;;;;4939525;29;20479;-70
2023/05/16 16:04:15;;;;;;;0.60;0.10;;;18.60;1.00;;;;;;4940924;29;20455;-74
2023/05/16 16:06:43;;;;;;;0.60;0.10;;;18.50;1.00;;;;;;4942367;29;20473;-70
2023/05/16 16:09:11;;;;;;;0.60;0.10;;;18.50;1.00;;;;;;4940676;29;20522;-71
2023/05/16 16:11:39;;;;;;;0.60;0.10;;;18.70;1.00;;;;;;4938328;29;20489;-70
2023/05/16 16:14:07;;;;;;;0.60;0.20;;;18.90;1.00;;;;;;4938773;29;21036;-71
2023/05/16 16:16:36;;;;;;;0.60;0.10;;;19.30;1.00;;;;;;4959895;23;20585;-72
2023/05/16 16:19:05;;;;;;;0.60;0.10;;;19.30;1.00;;;;;;4972896;28;20537;-72
2023/05/16 16:21:33;;;;;;;0.60;0.13;;;19.30;1.00;;;;;;4962379;28;20488;-72
2023/05/16 16:24:02;;;;;;;0.60;0.10;;;19.40;1.00;;;;;;4969153;28;20459;-73
2023/05/16 16:26:30;;;;;;;0.60;0.10;;;;;;;;;;4972055;28;20480;-73
2023/05/16 16:28:59;;;;;;;0.60;0.10;;;19.90;1.00;;;;;;4965125;28;20447;-70
2023/05/16 16:31:27;;;;;;;0.60;0.10;;;20.00;1.00;;;;;;4972498;28;20457;-71
2023/05/16 16:33:55;;;;;;;0.60;0.20;;;18.90;1.00;;;;;;4972994;28;20521;-72
2023/05/16 16:36:24;;;;;;;0.60;0.10;;;19.80;1.00;;;;;;4972177;28;20954;-71
2023/05/16 16:38:52;;;;;;;0.60;0.20;;;19.30;1.00;;;;;;4972383;28;20516;-71
2023/05/16 16:41:20;;;;;;;0.90;0.40;;;19.40;1.00;;;;;;4960053;28;20579;-72
2023/05/16 16:43:48;;;;;;;0.60;0.20;;;19.20;1.00;;;;;;4960808;28;20470;-71
2023/05/16 16:46:16;;;;;;;6.13;4.47;;;;;;;;;;4972061;28;20536;-70
2023/05/16 16:48:44;;;;;;;0.60;0.20;;;19.00;1.00;;;;;;4967625;28;20894;-73
2023/05/16 16:51:12;;;;;;;0.60;0.10;;;18.80;1.00;;;;;;4972845;28;21052;-71
2023/05/16 16:53:41;;;;;;;0.77;0.33;;;18.60;1.00;;;;;;4973863;28;20866;-72
2023/05/16 16:56:09;;;;;;;0.60;0.13;;;18.40;1.00;;;;;;4972893;28;20500;-72
2023/05/16 16:58:37;;;;;;;0.60;0.20;;;18.20;1.00;;;;;;4972946;28;20641;-71
2023/05/16 17:01:05;;;;;;;0.60;0.10;;;;;;;;;;4972866;28;20531;-71
2023/05/16 17:03:33;;;;;;;0.60;0.10;;;18.00;1.00;;;;;;4972059;28;20567;-72
2023/05/16 17:06:01;;;;;;;5.97;2.20;;;18.00;1.00;;;;;;4972844;28;20473;-70
2023/05/16 17:08:29;;;;;;;0.60;0.10;;;17.90;1.00;;;;;;4972467;28;20487;-71
2023/05/16 17:11:03;;;;;;;0.60;0.10;;;17.80;1.00;;;;;;4964106;28;20861;-73